createdAt,value
2022-10-30T00:00:41.390Z,12.60
2022-10-30T00:03:25.181Z,11.90
2022-10-30T00:06:09.486Z,10.30
2022-10-30T00:08:53.357Z,11.60
2022-10-30T00:11:37.108Z,13.10
2022-10-30T00:14:22.257Z,17.63
2022-10-30T00:17:05.990Z,16.70
2022-10-30T00:19:49.753Z,23.43
2022-10-30T00:22:33.512Z,22.47
2022-10-30T00:25:17.537Z,23.80
2022-10-30T00:28:01.296Z,24.63
2022-10-30T00:30:46.408Z,24.70
2022-10-30T00:33:30.189Z,19.50
2022-10-30T00:36:14.798Z,19.87
2022-10-30T00:38:59.617Z,22.23
2022-10-30T00:41:46.775Z,19.83
2022-10-30T00:44:39.181Z,16.47
2022-10-30T00:47:28.995Z,15.50
2022-10-30T00:50:16.586Z,16.17
2022-10-30T00:53:08.535Z,16.63
2022-10-30T00:55:56.113Z,11.93
2022-10-30T00:58:46.146Z,13.60
2022-10-30T01:01:35.200Z,13.33
2022-10-30T01:04:25.884Z,12.77
2022-10-30T01:07:16.464Z,15.30
2022-10-30T01:10:01.014Z,15.17
2022-10-30T01:12:48.602Z,17.57
2022-10-30T01:15:36.975Z,19.07
2022-10-30T01:18:36.663Z,18.40
2022-10-30T01:21:39.100Z,20.57
2022-10-30T01:24:40.019Z,26.47
2022-10-30T01:27:40.556Z,31.90
2022-10-30T01:30:42.785Z,35.47
2022-10-30T01:33:38.055Z,37.77
2022-10-30T01:36:30.278Z,44.10
2022-10-30T01:39:17.525Z,46.23
2022-10-30T01:42:01.463Z,45.00
2022-10-30T01:44:45.263Z,50.10
2022-10-30T01:47:44.114Z,54.03
2022-10-30T01:50:38.508Z,52.07
2022-10-30T01:53:36.290Z,47.57
2022-10-30T01:56:30.012Z,49.43
2022-10-30T01:59:24.655Z,44.53
2022-10-30T02:02:09.516Z,45.70
2022-10-30T02:04:54.129Z,42.70
2022-10-30T02:07:38.506Z,44.67
2022-10-30T02:10:25.755Z,37.23
2022-10-30T02:13:09.950Z,39.47
2022-10-30T02:15:54.215Z,35.60
2022-10-30T02:18:38.108Z,37.37
2022-10-30T02:21:23.545Z,37.93
2022-10-30T02:24:08.309Z,36.67
2022-10-30T02:26:52.278Z,33.30
2022-10-30T02:29:36.123Z,34.77
2022-10-30T02:32:19.726Z,31.67
2022-10-30T02:35:03.634Z,34.93
2022-10-30T02:37:50.650Z,30.43
2022-10-30T02:40:34.405Z,27.90
2022-10-30T02:43:18.058Z,27.93
2022-10-30T02:46:01.860Z,28.20
2022-10-30T02:48:45.607Z,20.27
2022-10-30T02:51:32.619Z,22.50
2022-10-30T02:54:18.134Z,19.77
2022-10-30T02:57:02.803Z,20.67
2022-10-30T02:59:46.770Z,17.03
2022-10-30T03:02:30.758Z,18.63
2022-10-30T03:05:14.887Z,17.57
2022-10-30T03:07:59.111Z,17.70
2022-10-30T03:10:44.993Z,21.10
2022-10-30T03:13:30.116Z,18.37
2022-10-30T03:16:16.102Z,19.97
2022-10-30T03:19:00.029Z,21.87
2022-10-30T03:21:43.969Z,20.63
2022-10-30T03:24:30.322Z,14.53
2022-10-30T03:27:15.758Z,13.97
2022-10-30T03:29:59.841Z,13.07
2022-10-30T03:32:44.044Z,14.80
2022-10-30T03:35:27.988Z,13.17
2022-10-30T03:38:12.245Z,13.60
2022-10-30T03:40:56.461Z,16.20
2022-10-30T03:43:43.019Z,12.57
2022-10-30T03:46:27.039Z,12.93
2022-10-30T03:49:19.015Z,12.97
2022-10-30T03:52:03.131Z,13.97
2022-10-30T03:54:47.061Z,12.70
2022-10-30T03:57:37.387Z,16.97
2022-10-30T04:00:30.272Z,13.73
2022-10-30T04:03:16.018Z,14.97
2022-10-30T04:06:00.355Z,16.07
2022-10-30T04:08:44.333Z,13.77
2022-10-30T04:11:28.436Z,15.13
2022-10-30T04:14:12.404Z,15.37
2022-10-30T04:16:57.809Z,16.27
2022-10-30T04:19:41.913Z,14.27
2022-10-30T04:22:27.321Z,13.33
2022-10-30T04:25:11.426Z,16.70
2022-10-30T04:27:56.349Z,17.53
2022-10-30T04:30:40.687Z,12.00
2022-10-30T04:33:25.873Z,14.57
2022-10-30T04:36:11.268Z,14.87
2022-10-30T04:38:55.061Z,14.00
2022-10-30T04:41:42.200Z,13.43
2022-10-30T04:44:32.736Z,15.37
2022-10-30T04:47:17.456Z,17.73
2022-10-30T04:50:03.766Z,17.90
2022-10-30T04:52:49.348Z,19.57
2022-10-30T04:55:34.052Z,21.93
2022-10-30T04:58:17.875Z,16.37
2022-10-30T05:01:07.581Z,18.57
2022-10-30T05:03:54.742Z,18.07
2022-10-30T05:06:40.816Z,20.30
2022-10-30T05:09:24.711Z,18.77
2022-10-30T05:12:09.197Z,17.43
2022-10-30T05:15:03.660Z,15.10
2022-10-30T05:17:53.263Z,15.17
2022-10-30T05:20:37.492Z,13.20
2022-10-30T05:23:22.686Z,14.10
2022-10-30T05:26:06.876Z,15.97
2022-10-30T05:28:51.724Z,14.53
2022-10-30T05:31:36.147Z,14.57
2022-10-30T05:34:38.545Z,16.60
2022-10-30T05:37:22.401Z,16.20
2022-10-30T05:40:08.810Z,17.83
2022-10-30T05:42:52.914Z,14.13
2022-10-30T05:45:37.175Z,14.30
2022-10-30T05:48:22.417Z,17.13
2022-10-30T05:51:08.558Z,15.10
2022-10-30T05:53:55.040Z,12.63
2022-10-30T05:56:44.109Z,13.70
2022-10-30T05:59:29.166Z,12.27
2022-10-30T06:02:13.087Z,20.80
2022-10-30T06:04:56.982Z,18.27
2022-10-30T06:07:40.746Z,19.60
2022-10-30T06:10:24.870Z,19.07
2022-10-30T06:13:45.246Z,19.67
2022-10-30T06:19:34.737Z,19.40
2022-10-30T06:23:01.806Z,18.87
2022-10-30T06:25:57.528Z,19.23
2022-10-30T06:29:09.245Z,19.47
2022-10-30T06:31:53.080Z,23.23
2022-10-30T06:34:37.000Z,19.13
2022-10-30T06:37:20.924Z,18.37
2022-10-30T06:40:07.346Z,19.57
2022-10-30T06:43:10.962Z,21.33
2022-10-30T06:48:59.348Z,19.50
2022-10-30T06:51:43.752Z,21.43
2022-10-30T06:54:28.425Z,23.07
2022-10-30T06:57:35.507Z,21.30
2022-10-30T07:00:39.528Z,25.00
2022-10-30T07:03:43.170Z,20.93
2022-10-30T07:06:27.088Z,21.37
2022-10-30T07:09:11.750Z,19.93
2022-10-30T07:11:56.969Z,21.27
2022-10-30T07:15:04.345Z,20.00
2022-10-30T07:18:17.487Z,21.90
2022-10-30T07:21:03.553Z,20.50
2022-10-30T07:23:48.802Z,22.03
2022-10-30T07:26:52.885Z,19.70
2022-10-30T07:29:55.384Z,19.23
2022-10-30T07:32:42.858Z,18.77
2022-10-30T07:35:37.879Z,22.80
2022-10-30T07:38:36.293Z,23.00
2022-10-30T07:41:34.828Z,20.27
2022-10-30T07:44:37.278Z,19.37
2022-10-30T07:47:34.284Z,16.97
2022-10-30T07:50:26.381Z,23.03
2022-10-30T07:53:10.134Z,19.83
2022-10-30T07:55:55.371Z,19.70
2022-10-30T07:58:58.046Z,21.67
2022-10-30T08:01:55.736Z,18.53
2022-10-30T08:04:49.455Z,18.87
2022-10-30T08:07:50.005Z,19.83
2022-10-30T08:10:34.136Z,19.57
2022-10-30T08:13:20.606Z,19.60
2022-10-30T08:16:04.551Z,19.50
2022-10-30T08:18:48.473Z,21.77
2022-10-30T08:21:32.278Z,18.63
2022-10-30T08:24:21.112Z,17.43
2022-10-30T08:27:13.568Z,24.73
2022-10-30T08:29:58.915Z,21.90
2022-10-30T08:32:42.819Z,17.87
2022-10-30T08:35:51.910Z,19.50
2022-10-30T08:38:35.760Z,22.30
2022-10-30T08:41:36.826Z,22.23
2022-10-30T08:44:21.340Z,19.87
2022-10-30T08:47:26.657Z,17.73
2022-10-30T08:50:11.054Z,19.63
2022-10-30T08:52:55.012Z,20.20
2022-10-30T08:55:39.224Z,18.70
2022-10-30T08:58:30.005Z,14.73
2022-10-30T09:01:14.744Z,14.53
2022-10-30T09:04:18.622Z,12.33
2022-10-30T09:07:21.228Z,17.13
2022-10-30T09:10:23.703Z,16.55
2022-10-30T09:13:09.315Z,16.37
2022-10-30T09:15:53.557Z,13.65
2022-10-30T09:18:37.928Z,15.32
2022-10-30T09:21:23.780Z,14.98
2022-10-30T09:24:10.243Z,14.95
2022-10-30T09:26:53.961Z,8.90
2022-10-30T09:29:44.599Z,14.45
2022-10-30T09:32:38.102Z,8.15
2022-10-30T09:35:26.690Z,9.93
2022-10-30T09:38:13.160Z,8.80
2022-10-30T09:41:29.978Z,8.45
2022-10-30T09:44:29.484Z,6.57
2022-10-30T09:47:27.192Z,7.28
2022-10-30T09:50:27.178Z,7.03
2022-10-30T09:53:26.710Z,4.55
2022-10-30T09:56:19.889Z,6.18
2022-10-30T09:59:12.177Z,6.10
2022-10-30T10:02:03.319Z,10.57
2022-10-30T10:04:53.624Z,4.88
2022-10-30T10:08:00.080Z,7.05
2022-10-30T10:11:15.367Z,10.85
2022-10-30T10:14:03.036Z,5.28
2022-10-30T10:16:53.058Z,4.53
2022-10-30T10:19:42.688Z,9.55
2022-10-30T10:22:28.560Z,8.73
2022-10-30T10:25:16.684Z,5.13
2022-10-30T10:28:23.276Z,6.32
2022-10-30T10:31:17.311Z,5.95
2022-10-30T10:34:20.406Z,10.52
2022-10-30T10:37:16.291Z,9.10
2022-10-30T10:40:17.655Z,7.53
2022-10-30T10:43:16.017Z,7.50
2022-10-30T10:46:21.146Z,7.68
2022-10-30T10:49:29.646Z,12.32
2022-10-30T10:52:18.028Z,12.52
2022-10-30T10:55:06.237Z,16.48
2022-10-30T10:57:51.098Z,10.55
2022-10-30T11:00:36.370Z,9.10
2022-10-30T11:03:24.370Z,9.70
2022-10-30T11:06:21.383Z,15.15
2022-10-30T11:09:16.596Z,8.73
2022-10-30T11:12:00.420Z,8.90
2022-10-30T11:14:44.267Z,10.45
2022-10-30T11:17:38.166Z,7.78
2022-10-30T11:20:30.862Z,10.23
2022-10-30T11:23:35.414Z,6.03
2022-10-30T11:26:29.529Z,8.55
2022-10-30T11:29:15.120Z,9.23
2022-10-30T11:32:03.576Z,7.20
2022-10-30T11:34:48.722Z,6.93
2022-10-30T11:37:34.287Z,8.40
2022-10-30T11:40:21.029Z,6.63
2022-10-30T11:43:06.450Z,9.95
2022-10-30T11:45:51.544Z,6.57
2022-10-30T11:48:37.588Z,6.32
2022-10-30T11:51:32.839Z,5.60
2022-10-30T11:54:22.104Z,7.63
2022-10-30T11:57:12.477Z,6.35
2022-10-30T12:00:03.756Z,5.68
2022-10-30T12:02:57.622Z,4.28
2022-10-30T12:05:45.158Z,8.77
2022-10-30T12:08:30.358Z,6.05
2022-10-30T12:11:14.018Z,9.27
2022-10-30T12:13:58.820Z,4.20
2022-10-30T12:16:46.817Z,4.53
2022-10-30T12:19:32.446Z,5.38
2022-10-30T12:22:26.688Z,3.67
2022-10-30T12:25:24.656Z,3.17
2022-10-30T12:28:14.571Z,4.70
2022-10-30T12:31:04.927Z,3.13
2022-10-30T12:33:54.538Z,4.00
2022-10-30T12:36:46.168Z,5.68
2022-10-30T12:39:37.496Z,3.97
2022-10-30T12:42:24.989Z,6.07
2022-10-30T12:45:14.818Z,3.92
2022-10-30T12:48:03.582Z,3.45
2022-10-30T12:50:57.152Z,6.97
2022-10-30T12:53:47.848Z,5.40
2022-10-30T12:56:37.120Z,6.20
2022-10-30T12:59:33.019Z,5.95
2022-10-30T13:02:37.742Z,7.70
2022-10-30T13:05:29.845Z,6.93
2022-10-30T13:08:21.914Z,3.00
2022-10-30T13:11:13.056Z,6.28
2022-10-30T13:14:00.580Z,6.00
2022-10-30T13:16:45.799Z,5.57
2022-10-30T13:19:29.760Z,11.35
2022-10-30T13:22:20.770Z,5.55
2022-10-30T13:25:15.994Z,7.18
2022-10-30T13:28:06.237Z,5.70
2022-10-30T13:31:02.553Z,5.47
2022-10-30T13:33:56.387Z,8.88
2022-10-30T13:36:46.963Z,4.15
2022-10-30T13:39:37.086Z,5.20
2022-10-30T13:42:33.310Z,5.13
2022-10-30T13:45:36.214Z,5.50
2022-10-30T13:48:34.797Z,5.38
2022-10-30T13:51:34.934Z,5.13
2022-10-30T13:54:22.609Z,5.18
2022-10-30T13:57:14.252Z,3.70
2022-10-30T14:00:14.297Z,7.50
2022-10-30T14:03:22.504Z,5.88
2022-10-30T14:06:13.786Z,8.85
2022-10-30T14:09:07.648Z,13.13
2022-10-30T14:11:54.507Z,13.40
2022-10-30T14:14:48.879Z,8.30
2022-10-30T14:17:32.684Z,10.43
2022-10-30T14:20:26.762Z,9.55
2022-10-30T14:23:15.870Z,7.95
2022-10-30T14:26:21.789Z,14.60
2022-10-30T14:29:38.672Z,11.18
2022-10-30T14:32:42.921Z,12.85
2022-10-30T14:35:44.678Z,12.55
2022-10-30T14:38:31.563Z,13.38
2022-10-30T14:41:35.185Z,11.25
2022-10-30T14:44:51.533Z,13.18
2022-10-30T14:47:55.851Z,13.02
2022-10-30T14:51:05.776Z,15.68
2022-10-30T14:54:01.721Z,9.82
2022-10-30T14:56:49.724Z,15.10
2022-10-30T14:59:35.509Z,12.60
2022-10-30T15:02:32.428Z,13.40
2022-10-30T15:05:40.709Z,18.42
2022-10-30T15:08:47.172Z,18.90
2022-10-30T15:11:47.933Z,12.02
2022-10-30T15:14:53.482Z,11.43
2022-10-30T15:17:40.777Z,12.02
2022-10-30T15:20:26.635Z,15.35
2022-10-30T15:23:17.680Z,12.57
2022-10-30T15:26:09.486Z,13.88
2022-10-30T15:28:55.148Z,20.33
2022-10-30T15:31:40.325Z,24.55
2022-10-30T15:34:24.476Z,19.73
2022-10-30T15:37:13.282Z,13.52
2022-10-30T15:40:12.595Z,16.08
2022-10-30T15:42:57.933Z,15.70
2022-10-30T15:45:44.012Z,24.55
2022-10-30T15:48:31.213Z,28.47
2022-10-30T15:51:18.370Z,36.70
2022-10-30T15:54:03.841Z,34.97
2022-10-30T15:57:27.062Z,29.20
2022-10-30T15:59:58.341Z,29.95
2022-10-30T16:02:42.106Z,30.88
2022-10-30T16:05:27.918Z,26.20
2022-10-30T16:08:15.856Z,23.97
2022-10-30T16:10:59.757Z,18.20
2022-10-30T16:13:44.170Z,20.27
2022-10-30T16:16:30.522Z,84.57
2022-10-30T16:19:28.041Z,22.53
2022-10-30T16:22:26.046Z,24.53
2022-10-30T16:25:12.910Z,15.27
2022-10-30T16:27:57.005Z,13.63
2022-10-30T16:30:41.152Z,17.03
2022-10-30T16:33:28.693Z,8.57
2022-10-30T16:36:17.015Z,11.70
2022-10-30T16:39:02.890Z,10.70
2022-10-30T16:41:47.603Z,7.03
2022-10-30T16:44:32.829Z,9.18
2022-10-30T16:47:25.850Z,8.38
2022-10-30T16:50:15.966Z,13.65
2022-10-30T16:53:06.689Z,7.28
2022-10-30T16:55:52.426Z,10.57
2022-10-30T16:58:36.186Z,9.20
2022-10-30T17:01:24.846Z,7.57
2022-10-30T17:04:09.124Z,12.13
2022-10-30T17:07:09.162Z,10.40
2022-10-30T17:09:55.685Z,12.13
2022-10-30T17:12:40.803Z,10.30
2022-10-30T17:15:25.406Z,9.73
2022-10-30T17:18:17.965Z,10.13
2022-10-30T17:21:08.217Z,24.20
2022-10-30T17:23:54.005Z,20.13
2022-10-30T17:26:40.157Z,18.87
2022-10-30T17:29:46.658Z,28.47
2022-10-30T17:32:42.857Z,18.92
2022-10-30T17:35:26.633Z,14.90
2022-10-30T17:38:10.569Z,18.67
2022-10-30T17:40:55.058Z,17.10
2022-10-30T17:43:50.531Z,19.38
2022-10-30T17:46:35.724Z,17.37
2022-10-30T17:49:26.282Z,15.27
2022-10-30T17:52:13.454Z,12.17
2022-10-30T17:54:57.286Z,19.03
2022-10-30T17:57:41.126Z,19.60
2022-10-30T18:00:25.089Z,17.80
2022-10-30T18:03:10.461Z,15.03
2022-10-30T18:05:55.689Z,17.37
2022-10-30T18:08:39.725Z,15.20
2022-10-30T18:11:27.300Z,17.27
2022-10-30T18:14:12.281Z,13.57
2022-10-30T18:16:56.683Z,14.53
2022-10-30T18:19:42.054Z,11.20
2022-10-30T18:22:25.779Z,12.47
2022-10-30T18:25:17.965Z,11.40
2022-10-30T18:28:01.850Z,16.73
2022-10-30T18:30:50.348Z,14.77
2022-10-30T18:33:34.200Z,15.63
2022-10-30T18:36:20.807Z,20.00
2022-10-30T18:39:04.653Z,18.90
2022-10-30T18:41:49.593Z,15.10
2022-10-30T18:44:33.511Z,15.20
2022-10-30T18:47:17.362Z,19.05
2022-10-30T18:50:01.183Z,19.60
2022-10-30T18:52:46.653Z,16.38
2022-10-30T18:55:34.823Z,15.13
2022-10-30T18:58:18.657Z,18.23
2022-10-30T19:01:17.869Z,25.10
2022-10-30T19:04:03.682Z,20.23
2022-10-30T19:06:47.747Z,22.67
2022-10-30T19:09:32.952Z,42.83
2022-10-30T19:12:17.745Z,32.17
2022-10-30T19:15:01.670Z,19.87
2022-10-30T19:17:47.151Z,20.73
2022-10-30T19:20:50.620Z,18.97
2022-10-30T19:23:36.122Z,16.10
2022-10-30T19:26:21.210Z,15.73
2022-10-30T19:29:04.934Z,22.10
2022-10-30T19:31:49.232Z,19.53
2022-10-30T19:34:32.924Z,15.07
2022-10-30T19:37:16.697Z,13.50
2022-10-30T19:40:01.383Z,15.17
2022-10-30T19:42:46.826Z,16.47
2022-10-30T19:45:33.082Z,20.60
2022-10-30T19:48:24.888Z,19.10
2022-10-30T19:51:18.187Z,13.77
2022-10-30T19:54:01.867Z,14.70
2022-10-30T19:56:45.586Z,11.47
2022-10-30T19:59:30.700Z,11.53
2022-10-30T20:02:14.441Z,11.70
2022-10-30T20:04:58.345Z,13.20
2022-10-30T20:07:42.664Z,11.87
2022-10-30T20:10:26.530Z,13.17
2022-10-30T20:13:12.275Z,13.73
2022-10-30T20:15:59.950Z,14.43
2022-10-30T20:18:43.982Z,11.03
2022-10-30T20:21:28.961Z,13.63
2022-10-30T20:24:13.008Z,14.23
2022-10-30T20:26:57.885Z,18.40
2022-10-30T20:29:43.886Z,17.87
2022-10-30T20:32:29.844Z,17.07
2022-10-30T20:35:14.839Z,20.00
2022-10-30T20:38:01.687Z,19.53
2022-10-30T20:40:46.107Z,17.17
2022-10-30T20:43:32.077Z,20.67
2022-10-30T20:46:17.536Z,17.93
2022-10-30T20:49:16.805Z,15.47
2022-10-30T20:52:02.002Z,18.13
2022-10-30T20:54:46.253Z,17.40
2022-10-30T20:57:30.284Z,15.53
2022-10-30T21:00:15.773Z,15.93
2022-10-30T21:02:59.670Z,13.80
2022-10-30T21:05:46.357Z,12.47
2022-10-30T21:08:32.669Z,12.87
2022-10-30T21:11:16.803Z,15.13
2022-10-30T21:14:00.814Z,16.10
2022-10-30T21:16:48.506Z,12.00
2022-10-30T21:19:32.741Z,9.30
2022-10-30T21:22:18.216Z,10.37
2022-10-30T21:25:02.167Z,10.10
2022-10-30T21:27:46.856Z,8.47
2022-10-30T21:30:30.953Z,6.97
2022-10-30T21:33:14.917Z,8.87
2022-10-30T21:35:58.920Z,6.67
2022-10-30T21:38:45.669Z,8.20
2022-10-30T21:41:29.652Z,6.43
2022-10-30T21:44:15.571Z,9.13
2022-10-30T21:46:59.579Z,9.13
2022-10-30T21:49:43.505Z,7.53
2022-10-30T21:52:27.753Z,7.83
2022-10-30T21:55:13.131Z,7.10
2022-10-30T21:57:57.286Z,6.67
2022-10-30T22:00:41.492Z,7.47
2022-10-30T22:03:25.442Z,10.80
2022-10-30T22:06:11.115Z,7.33
2022-10-30T22:08:56.577Z,8.73
2022-10-30T22:11:42.043Z,7.40
2022-10-30T22:14:27.062Z,6.77
2022-10-30T22:17:11.194Z,12.83
2022-10-30T22:19:55.115Z,9.13
2022-10-30T22:22:39.145Z,10.80
2022-10-30T22:25:23.223Z,6.60
2022-10-30T22:28:08.549Z,8.83
2022-10-30T22:30:52.662Z,8.13
2022-10-30T22:33:37.466Z,8.87
2022-10-30T22:36:23.435Z,6.70
2022-10-30T22:39:09.985Z,9.23
2022-10-30T22:41:53.866Z,7.47
2022-10-30T22:44:39.232Z,11.27
2022-10-30T22:47:23.234Z,8.57
2022-10-30T22:50:08.047Z,7.47
2022-10-30T22:52:52.160Z,7.33
2022-10-30T22:55:36.116Z,10.03
2022-10-30T22:58:20.242Z,7.00
2022-10-30T23:01:10.949Z,5.00
2022-10-30T23:03:57.669Z,8.23
2022-10-30T23:06:41.564Z,9.70
2022-10-30T23:09:25.468Z,7.47
2022-10-30T23:12:09.775Z,6.27
2022-10-30T23:14:53.717Z,5.47
2022-10-30T23:17:39.137Z,7.47
2022-10-30T23:20:23.130Z,6.70
2022-10-30T23:23:07.002Z,8.50
2022-10-30T23:25:51.057Z,8.00
2022-10-30T23:28:35.025Z,8.20
2022-10-30T23:31:21.283Z,11.03
2022-10-30T23:34:08.496Z,12.03
2022-10-30T23:36:53.525Z,6.73
2022-10-30T23:39:39.230Z,6.20
2022-10-30T23:42:23.111Z,11.17
2022-10-30T23:45:07.906Z,6.40
2022-10-30T23:47:51.907Z,8.67
2022-10-30T23:50:37.894Z,13.20
2022-10-30T23:53:21.800Z,9.40
2022-10-30T23:56:06.675Z,11.30
2022-10-30T23:58:52.349Z,7.80
